Time;durP1;ratioP1;P1;durP2;ratioP2;P2;SDS_P1;SDS_P2;PMS_P1;PMS_P2;Temp;Humidity;BMP_temperature;BMP_pressure;BME280_temperature;BME280_humidity;BME280_pressure;Samples;Min_cycle;Max_cycle;Signal;HPM_P1;HPM_P2
2023/06/09 00:01:55;;;;;;;;;24.50;22.75;;;;;17.87;58.58;99706.06;5095965;28;8844;-57
2023/06/09 00:04:23;;;;;;;;;24.25;21.75;;;;;17.82;58.82;99714.66;5095786;28;8829;-59
2023/06/09 00:06:52;;;;;;;;;16.00;16.00;;;;;17.83;58.55;99726.28;5096007;28;9632;-58
2023/06/09 00:09:20;;;;;;;;;24.00;22.00;;;;;17.90;58.72;99717.34;5095920;28;8826;-59
2023/06/09 00:11:49;;;;;;;;;21.50;21.00;;;;;17.92;58.29;99714.47;5095917;28;8842;-58
2023/06/09 00:14:16;;;;;;;;;19.00;17.75;;;;;17.82;58.78;99720.06;5095656;28;8822;-60
2023/06/09 00:16:45;;;;;;;;;19.75;18.25;;;;;17.66;59.23;99721.94;5095959;28;8830;-59
2023/06/09 00:19:13;;;;;;;;;21.25;19.50;;;;;17.49;59.18;99707.69;5095772;28;8818;-59
2023/06/09 00:21:44;;;;;;;;;26.00;23.75;;;;;17.36;59.99;99718.16;5095446;28;8806;-59
2023/06/09 00:24:12;;;;;;;;;27.75;22.50;;;;;17.25;60.25;99715.75;5095897;28;8822;-58
2023/06/09 00:26:39;;;;;;;;;21.50;19.00;;;;;17.12;60.04;99715.44;5095661;28;8833;-59
2023/06/09 00:29:07;;;;;;;;;24.00;21.25;;;;;17.03;60.65;99718.31;5094956;28;8822;-59
2023/06/09 00:31:35;;;;;;;;;26.50;25.50;;;;;16.94;60.72;99706.69;5093855;28;8818;-58
2023/06/09 00:34:03;;;;;;;;;26.00;23.50;;;;;16.87;60.73;99704.84;5095263;28;8969;-60
2023/06/09 00:36:30;;;;;;;;;29.00;26.50;;;;;16.82;60.91;99701.81;5095608;28;8802;-57
2023/06/09 00:38:58;;;;;;;;;25.00;23.75;;;;;16.79;61.04;99702.97;5095839;28;8818;-57
2023/06/09 00:41:26;;;;;;;;;27.50;26.00;;;;;16.81;60.93;99724.34;5095592;28;8818;-60
2023/06/09 00:43:55;;;;;;;;;37.75;33.25;;;;;16.88;60.65;99725.34;5095877;28;8855;-60
2023/06/09 00:46:23;;;;;;;;;39.50;35.75;;;;;16.93;60.59;99726.53;5095603;28;8818;-58
2023/06/09 00:48:50;;;;;;;;;32.00;29.25;;;;;16.93;60.16;99728.41;5095131;28;8806;-58
2023/06/09 00:51:18;;;;;;;;;35.00;29.00;;;;;16.87;60.93;99721.81;5095245;28;8929;-59
2023/06/09 00:53:46;;;;;;;;;28.00;27.00;;;;;16.81;61.19;99713.59;5095682;28;8845;-57
2023/06/09 00:56:14;;;;;;;;;25.00;24.25;;;;;16.78;61.17;99719.31;5095596;28;8822;-58
2023/06/09 00:58:42;;;;;;;;;27.50;25.50;;;;;16.75;60.64;99711.56;5095714;28;8835;-57
2023/06/09 01:01:10;;;;;;;;;26.50;24.00;;;;;16.76;61.52;99716.78;5095604;28;8831;-58
2023/06/09 01:03:38;;;;;;;;;28.75;24.75;;;;;16.78;60.74;99713.94;5095349;28;8973;-60
2023/06/09 01:06:05;;;;;;;;;26.25;22.25;;;;;16.78;60.98;99705.84;5095360;28;8822;-59
2023/06/09 01:08:33;;;;;;;;;26.75;26.50;;;;;16.78;61.08;99708.56;5095637;28;8825;-59
2023/06/09 01:11:01;;;;;;;;;22.75;21.50;;;;;16.77;60.90;99710.38;5095731;28;9504;-58
2023/06/09 01:13:29;;;;;;;;;29.25;28.25;;;;;16.76;61.08;99715.91;5095360;28;8842;-58
2023/06/09 01:15:58;;;;;;;;;32.25;30.00;;;;;16.72;61.40;99712.72;5095087;28;9569;-57
2023/06/09 01:18:26;;;;;;;;;26.50;26.00;;;;;16.66;60.85;99708.03;5095780;28;8834;-59
2023/06/09 01:20:56;;;;;;;;;31.75;31.50;;;;;16.60;60.79;99706.00;5098125;28;9529;-58
2023/06/09 01:23:24;;;;;;;;;32.00;27.50;;;;;16.51;61.61;99703.47;5098357;28;8830;-60
2023/06/09 01:25:52;;;;;;;;;32.25;30.00;;;;;16.42;62.02;99718.72;5098477;28;8814;-57
2023/06/09 01:28:21;;;;;;;;;23.00;20.00;;;;;16.33;62.17;99717.00;5099039;28;8845;-57
2023/06/09 01:30:49;;;;;;;;;31.25;27.75;;;;;16.28;62.30;99722.03;5098806;28;8821;-60
2023/06/09 01:33:16;;;;;;;;;36.50;34.50;;;;;16.25;61.96;99716.97;5098744;28;8846;-59
2023/06/09 01:35:44;;;;;;;;;28.75;27.00;;;;;16.23;62.54;99720.81;5099147;28;8842;-60
2023/06/09 01:38:12;;;;;;;;;31.00;29.50;;;;;16.22;62.39;99718.31;5098619;28;8849;-60
2023/06/09 01:40:40;;;;;;;;;26.00;25.25;;;;;16.20;62.63;99716.59;5098473;28;8814;-60
2023/06/09 01:43:07;;;;;;;;;22.00;21.00;;;;;16.19;62.63;99720.28;5099123;28;8907;-60
2023/06/09 01:45:35;;;;;;;;;20.00;18.75;;;;;16.17;62.25;99722.31;5098157;28;8822;-60
2023/06/09 01:48:03;;;;;;;;;23.00;23.00;;;;;16.17;62.63;99724.19;5098514;28;8861;-60
2023/06/09 01:50:31;;;;;;;;;28.50;26.00;;;;;16.13;62.25;99727.31;5098225;28;8891;-60
2023/06/09 01:52:58;;;;;;;;;27.00;24.00;;;;;16.09;62.32;99723.28;5098509;28;8819;-60
2023/06/09 01:55:26;;;;;;;;;32.50;28.00;;;;;16.05;62.80;99721.91;5098572;28;8822;-60
2023/06/09 01:57:54;;;;;;;;;27.00;25.00;;;;;16.01;62.35;99725.94;5098251;28;8834;-61
2023/06/09 02:00:22;;;;;;;;;27.75;25.00;;;;;15.96;62.88;99726.44;5098678;28;8861;-60
2023/06/09 02:02:50;;;;;;;;;26.25;23.75;;;;;15.93;62.70;99731.28;5098177;28;8858;-59
2023/06/09 02:05:17;;;;;;;;;25.00;23.00;;;;;15.93;62.82;99733.97;5097844;28;8825;-58
2023/06/09 02:07:48;;;;;;;;;28.50;27.00;;;;;15.89;62.98;99732.59;5097410;28;8830;-59
2023/06/09 02:10:16;;;;;;;;;23.50;23.25;;;;;15.82;62.74;99731.56;5097941;28;8810;-60
2023/06/09 02:12:44;;;;;;;;;32.75;26.25;;;;;15.75;63.05;99730.50;5098099;28;8818;-59
2023/06/09 02:15:11;;;;;;;;;24.75;21.00;;;;;15.66;63.59;99726.09;5097765;28;8802;-60
2023/06/09 02:17:40;;;;;;;;;22.25;20.25;;;;;15.59;63.30;99722.38;5097862;28;8822;-58
2023/06/09 02:20:08;;;;;;;;;18.25;18.25;;;;;15.52;63.38;99721.31;5097782;28;8895;-57
2023/06/09 02:22:36;;;;;;;;;23.25;22.75;;;;;15.47;63.90;99715.59;5097953;28;8817;-59
2023/06/09 02:25:04;;;;;;;;;19.50;18.50;;;;;15.42;63.63;99717.91;5097884;28;8818;-60
2023/06/09 02:27:32;;;;;;;;;22.50;21.75;;;;;15.39;63.53;99715.56;5097905;28;8854;-60
2023/06/09 02:30:00;;;;;;;;;23.75;21.75;;;;;15.35;63.50;99712.34;5097747;28;8952;-60
2023/06/09 02:32:28;;;;;;;;;18.75;17.75;;;;;15.35;63.77;99720.41;5097665;28;8842;-60
2023/06/09 02:34:55;;;;;;;;;24.50;20.75;;;;;15.34;63.87;99713.34;5097804;28;8841;-60
2023/06/09 02:37:23;;;;;;;;;22.00;22.00;;;;;15.35;63.91;99719.53;5097705;28;8829;-60
2023/06/09 02:39:51;;;;;;;;;23.25;22.00;;;;;15.36;63.73;99718.53;5097893;28;9464;-60
2023/06/09 02:42:19;;;;;;;;;21.25;19.50;;;;;15.36;63.68;99718.53;5097271;28;8830;-59
2023/06/09 02:44:48;;;;;;;;;24.50;24.00;;;;;15.35;63.44;99723.06;5097253;28;8857;-60
2023/06/09 02:47:16;;;;;;;;;22.00;20.25;;;;;15.37;63.49;99729.13;5097228;28;8814;-60
2023/06/09 02:49:43;;;;;;;;;24.00;22.75;;;;;15.42;63.52;99728.66;5097420;28;8822;-60
2023/06/09 02:52:11;;;;;;;;;15.50;14.00;;;;;15.44;63.89;99721.25;5097661;28;9512;-60
2023/06/09 02:54:40;;;;;;;;;21.75;21.25;;;;;15.44;63.34;99715.91;5097405;28;8822;-60
2023/06/09 02:57:08;;;;;;;;;22.00;21.00;;;;;15.43;63.80;99716.91;5097133;28;8830;-59
2023/06/09 02:59:35;;;;;;;;;22.00;21.00;;;;;15.41;63.48;99713.53;5097033;28;8853;-59
2023/06/09 03:02:03;;;;;;;;;21.50;21.00;;;;;15.40;63.39;99719.91;5096875;28;8841;-60
2023/06/09 03:04:32;;;;;;;;;21.00;19.50;;;;;15.37;63.45;99718.38;5096809;28;8840;-59
2023/06/09 03:07:02;;;;;;;;;18.50;17.75;;;;;15.35;63.70;99717.72;5096889;28;8826;-58
2023/06/09 03:09:29;;;;;;;;;24.50;21.00;;;;;15.33;63.39;99719.69;5097002;28;8822;-58
2023/06/09 03:11:57;;;;;;;;;22.25;21.00;;;;;15.32;63.96;99711.81;5096804;28;8833;-60
2023/06/09 03:14:25;;;;;;;;;23.00;20.50;;;;;15.28;64.27;99715.75;5096364;28;8842;-59
2023/06/09 03:16:53;;;;;;;;;18.50;18.00;;;;;15.26;63.68;99721.28;5096712;28;8862;-59
2023/06/09 03:19:21;;;;;;;;;21.00;18.75;;;;;15.23;64.13;99724.28;5096831;28;8953;-59
2023/06/09 03:21:49;;;;;;;;;21.50;20.75;;;;;15.21;63.80;99717.38;5096733;28;8822;-60
2023/06/09 03:24:17;;;;;;;;;22.00;21.25;;;;;15.18;64.26;99729.28;5095908;28;8849;-60
2023/06/09 03:26:45;;;;;;;;;20.25;19.50;;;;;15.18;63.95;99725.75;5096526;28;8829;-59
2023/06/09 03:29:13;;;;;;;;;26.25;23.25;;;;;15.17;63.96;99734.81;5096485;28;8822;-59
2023/06/09 03:31:40;;;;;;;;;29.50;24.75;;;;;15.17;64.11;99740.19;5096765;28;8817;-58
2023/06/09 03:34:08;;;;;;;;;27.50;25.00;;;;;15.18;64.36;99739.19;5096814;28;9786;-59
2023/06/09 03:36:36;;;;;;;;;33.00;31.00;;;;;15.18;63.91;99741.84;5096216;28;8832;-59
2023/06/09 03:39:04;;;;;;;;;26.50;25.25;;;;;15.21;63.65;99741.53;5076182;28;8839;-59
2023/06/09 03:41:31;;;;;;;;;33.00;30.75;;;;;15.22;63.68;99740.53;5075047;28;8824;-59
2023/06/09 03:43:59;;;;;;;;;27.50;24.00;;;;;15.26;64.09;99747.28;5075934;28;8835;-59
2023/06/09 03:46:27;;;;;;;;;29.25;26.75;;;;;15.29;63.98;99749.63;5075724;28;8952;-58
2023/06/09 03:48:54;;;;;;;;;25.25;24.00;;;;;15.36;63.93;99751.59;5075893;28;8915;-59
2023/06/09 03:51:23;;;;;;;;;27.50;26.00;;;;;15.40;63.41;99752.13;5076332;28;8840;-58
2023/06/09 03:53:50;;;;;;;;;17.00;17.00;;;;;15.42;63.49;99752.78;5075803;28;8832;-59
2023/06/09 03:56:18;;;;;;;;;27.50;24.00;;;;;15.47;63.86;99754.00;5075447;28;8854;-58
2023/06/09 03:58:46;;;;;;;;;23.00;22.50;;;;;15.52;63.17;99751.69;5075020;28;8873;-59
2023/06/09 04:01:17;;;;;;;;;24.25;22.50;;;;;15.54;63.23;99744.31;5075184;28;8851;-58
2023/06/09 04:03:45;;;;;;;;;23.00;23.00;;;;;15.59;63.17;99744.69;5074838;28;8848;-57
2023/06/09 04:06:13;;;;;;;;;28.75;26.75;;;;;15.60;63.72;99742.84;5074599;28;8933;-59
2023/06/09 04:08:44;;;;;;;;;30.00;27.50;;;;;15.65;63.60;99740.53;5091734;28;9711;-57
2023/06/09 04:11:12;;;;;;;;;19.50;18.25;;;;;15.69;63.29;99737.38;5095244;28;8830;-59
2023/06/09 04:13:40;;;;;;;;;28.50;27.50;;;;;15.73;63.36;99738.75;5095562;28;8825;-57
2023/06/09 04:16:08;;;;;;;;;25.25;22.50;;;;;15.76;63.34;99742.97;5094158;28;8818;-58
2023/06/09 04:18:35;;;;;;;;;28.50;24.75;;;;;15.82;63.50;99743.16;5095740;28;8826;-58
2023/06/09 04:21:03;;;;;;;;;28.50;25.00;;;;;15.89;63.30;99754.09;5095596;28;8813;-58
2023/06/09 04:23:32;;;;;;;;;24.75;23.00;;;;;15.98;62.85;99747.75;5095639;28;8828;-59
2023/06/09 04:26:02;;;;;;;;;22.50;21.50;;;;;16.04;62.70;99733.69;5094536;28;8837;-60
2023/06/09 04:28:29;;;;;;;;;25.75;23.50;;;;;16.11;62.74;99737.41;5095143;28;8842;-60
2023/06/09 04:30:58;;;;;;;;;30.00;26.50;;;;;16.22;62.41;99737.13;5094880;28;8837;-60
2023/06/09 04:33:26;;;;;;;;;30.00;27.00;;;;;16.34;62.60;99740.16;5095506;28;8862;-59
2023/06/09 04:35:54;;;;;;;;;25.00;22.50;;;;;16.47;62.40;99731.69;5095078;28;8838;-59
2023/06/09 04:38:23;;;;;;;;;25.00;23.00;;;;;16.53;61.93;99729.19;5094960;28;8818;-59
2023/06/09 04:40:51;;;;;;;;;27.25;24.75;;;;;16.58;61.58;99729.53;5095739;28;8840;-59
2023/06/09 04:43:19;;;;;;;;;35.75;32.00;;;;;16.67;61.70;99733.91;5095740;28;8840;-60
2023/06/09 04:45:47;;;;;;;;;21.50;20.25;;;;;16.75;61.57;99733.94;5095545;28;9832;-59
2023/06/09 04:48:14;;;;;;;;;32.75;25.50;;;;;16.83;61.62;99719.63;5095356;28;8845;-58
2023/06/09 04:50:44;;;;;;;;;26.50;24.50;;;;;16.91;61.28;99730.38;5095191;28;8856;-60
2023/06/09 04:53:12;;;;;;;;;31.75;29.25;;;;;17.00;61.12;99726.72;5095590;28;8867;-60
2023/06/09 04:55:40;;;;;;;;;27.25;24.00;;;;;17.12;61.39;99726.22;5099903;28;9515;-60
2023/06/09 04:58:11;;;;;;;;;27.25;24.25;;;;;17.24;61.06;99726.72;5098848;28;8957;-60
2023/06/09 05:00:39;;;;;;;;;31.75;28.75;;;;;17.35;61.10;99727.19;5098725;28;8944;-59
2023/06/09 05:03:07;;;;;;;;;27.67;25.00;;;;;17.43;61.30;99724.53;5098823;28;8848;-60
2023/06/09 05:05:35;;;;;;;;;27.50;26.00;;;;;17.51;60.81;99720.97;5099361;28;8854;-59
2023/06/09 05:08:04;;;;;;;;;25.00;24.00;;;;;17.59;60.24;99729.88;5098659;28;9577;-60
2023/06/09 05:10:32;;;;;;;;;25.50;24.00;;;;;17.69;60.04;99737.78;5098767;28;8830;-60
2023/06/09 05:12:59;;;;;;;;;25.00;23.25;;;;;17.80;59.87;99743.66;5098374;28;8833;-59
2023/06/09 05:15:27;;;;;;;;;24.50;24.25;;;;;17.89;59.79;99741.75;5098135;28;8834;-59
2023/06/09 05:17:55;;;;;;;;;23.00;22.25;;;;;17.95;60.21;99741.91;5098354;28;8818;-58
2023/06/09 05:20:23;;;;;;;;;21.00;19.75;;;;;18.03;60.14;99741.03;5097753;28;8880;-59
2023/06/09 05:22:51;;;;;;;;;30.00;28.25;;;;;18.11;60.04;99736.47;5097254;28;8898;-60
2023/06/09 05:25:19;;;;;;;;;33.00;30.25;;;;;18.20;59.72;99743.50;5097458;28;8918;-59
2023/06/09 05:27:46;;;;;;;;;23.50;22.75;;;;;18.31;59.39;99736.91;5097799;28;9578;-60
2023/06/09 05:30:14;;;;;;;;;22.00;20.50;;;;;18.42;59.00;99737.34;5096872;28;8969;-57
2023/06/09 05:32:42;;;;;;;;;21.75;19.75;;;;;18.54;59.49;99738.66;5097510;28;8850;-60
2023/06/09 05:35:10;;;;;;;;;28.75;27.25;;;;;18.67;59.23;99733.47;5097727;28;8829;-60
2023/06/09 05:37:38;;;;;;;;;26.00;23.50;;;;;18.81;59.22;99735.41;5098025;28;8822;-60
2023/06/09 05:40:05;;;;;;;;;25.50;24.75;;;;;18.94;58.70;99738.38;5098363;28;8846;-60
2023/06/09 05:42:34;;;;;;;;;27.00;23.50;;;;;19.08;58.60;99742.13;5097580;28;8818;-59
2023/06/09 05:45:02;;;;;;;;;26.00;24.25;;;;;19.19;58.53;99742.59;5098049;28;8899;-60
2023/06/09 05:47:30;;;;;;;;;25.00;24.00;;;;;19.28;58.42;99732.56;5097698;28;8859;-58
2023/06/09 05:49:58;;;;;;;;;26.50;23.75;;;;;19.37;58.46;99737.72;5097430;28;8965;-60
2023/06/09 05:52:25;;;;;;;;;28.40;26.80;;;;;19.47;57.97;99742.84;5097128;28;8841;-60
2023/06/09 05:54:57;;;;;;;;;22.60;22.40;;;;;19.57;57.51;99746.94;5097654;28;8829;-60
2023/06/09 05:57:25;;;;;;;;;20.60;19.60;;;;;19.71;57.85;99739.91;5097603;28;8814;-60
2023/06/09 05:59:53;;;;;;;;;25.80;23.60;;;;;19.82;57.56;99743.00;5096975;28;8841;-60
2023/06/09 06:02:21;;;;;;;;;26.40;23.80;;;;;19.95;57.15;99745.06;5096812;28;8993;-60
2023/06/09 06:04:49;;;;;;;;;20.20;19.40;;;;;20.06;57.56;99739.19;5096381;28;8837;-60
2023/06/09 06:07:17;;;;;;;;;27.40;24.40;;;;;20.20;57.11;99738.34;5097134;28;8815;-60
2023/06/09 06:09:45;;;;;;;;;24.20;22.40;;;;;20.34;56.92;99742.91;5097176;28;8850;-58
2023/06/09 06:12:13;;;;;;;;;29.40;27.00;;;;;20.47;56.57;99741.19;5095870;28;8976;-58
2023/06/09 06:14:41;;;;;;;;;18.80;15.80;;;;;20.58;56.61;99740.72;5095921;28;9587;-58
2023/06/09 06:17:09;;;;;;;;;23.20;23.00;;;;;20.69;56.21;99726.69;5096244;28;8922;-59
2023/06/09 06:19:37;;;;;;;;;26.80;25.20;;;;;20.82;56.39;99740.38;5096592;28;8830;-60
2023/06/09 06:22:05;;;;;;;;;29.20;25.40;;;;;20.92;56.19;99740.91;5096309;28;8838;-59
2023/06/09 06:24:34;;;;;;;;;21.60;21.00;;;;;21.00;56.06;99744.34;5096146;28;8857;-60
2023/06/09 06:27:02;;;;;;;;;23.60;22.60;;;;;21.12;55.58;99742.78;5096420;28;8852;-59
2023/06/09 06:29:30;;;;;;;;;25.00;22.00;;;;;21.22;55.54;99739.75;5096250;28;8838;-59
2023/06/09 06:31:58;;;;;;;;;21.00;19.40;;;;;21.32;55.47;99737.53;5095518;28;8856;-60
2023/06/09 06:34:26;;;;;;;;;24.40;23.00;;;;;21.43;55.37;99735.16;5096120;28;8837;-59
2023/06/09 06:36:54;;;;;;;;;26.00;25.20;;;;;21.51;55.42;99739.59;5096780;28;8830;-59
2023/06/09 06:39:22;;;;;;;;;24.60;22.40;;;;;21.59;55.07;99736.72;5096287;28;8862;-58
2023/06/09 06:41:50;;;;;;;;;19.80;17.00;;;;;21.66;55.29;99737.66;5095461;28;8957;-59
2023/06/09 06:44:18;;;;;;;;;29.20;25.00;;;;;21.75;55.46;99739.16;5096805;28;9590;-60
2023/06/09 06:46:47;;;;;;;;;26.40;25.00;;;;;21.81;54.93;99741.94;5094665;28;8845;-59
2023/06/09 06:49:15;;;;;;;;;30.40;26.80;;;;;21.90;54.99;99739.88;5094596;28;8857;-59
2023/06/09 06:51:42;;;;;;;;;26.60;22.80;;;;;21.97;54.69;99740.78;5095134;28;8822;-59
2023/06/09 06:54:10;;;;;;;;;22.60;21.00;;;;;22.07;54.79;99742.09;5095219;28;8849;-60
2023/06/09 06:56:38;;;;;;;;;24.20;21.60;;;;;22.16;55.09;99734.63;5095735;28;8833;-60
2023/06/09 06:59:06;;;;;;;;;21.20;19.20;;;;;22.26;54.94;99746.81;5095692;28;8826;-60
2023/06/09 07:01:36;;;;;;;;;26.00;23.20;;;;;22.35;54.42;99747.44;5096008;28;8844;-60
2023/06/09 07:04:04;;;;;;;;;22.40;21.20;;;;;22.42;54.93;99740.22;5094624;28;8830;-59
2023/06/09 07:06:32;;;;;;;;;20.00;19.80;;;;;22.49;54.28;99749.22;5095277;28;8838;-60
2023/06/09 07:09:01;;;;;;;;;21.00;19.60;;;;;22.57;53.88;99746.31;5095330;28;8833;-60
2023/06/09 07:11:32;;;;;;;;;24.60;24.00;;;;;22.66;54.16;99742.38;5095354;28;8849;-60
2023/06/09 07:14:01;;;;;;;;;29.20;24.80;;;;;22.75;54.13;99743.88;5094713;28;8826;-60
2023/06/09 07:16:31;;;;;;;;;29.00;27.60;;;;;22.83;54.44;99746.44;5093706;28;8822;-59
2023/06/09 07:18:58;;;;;;;;;24.40;24.40;;;;;22.90;54.00;99739.97;5093120;28;8913;-60
2023/06/09 07:21:29;;;;;;;;;21.40;18.40;;;;;23.00;54.13;99745.00;5094006;28;8826;-58
2023/06/09 07:23:56;;;;;;;;;21.00;20.60;;;;;23.09;53.85;99744.59;5093889;28;8829;-60
2023/06/09 07:26:25;;;;;;;;;20.60;20.00;;;;;23.20;53.97;99740.44;5094654;28;8830;-60
2023/06/09 07:28:52;;;;;;;;;22.80;21.40;;;;;23.28;53.80;99740.28;5094905;28;8825;-59
2023/06/09 07:31:21;;;;;;;;;25.40;24.20;;;;;23.37;53.65;99742.56;5094936;28;8830;-58
2023/06/09 07:33:49;;;;;;;;;22.20;22.20;;;;;23.44;53.44;99743.41;5094576;28;8850;-60
2023/06/09 07:36:17;;;;;;;;;20.40;18.00;;;;;23.53;53.52;99741.31;5094264;28;8814;-60
2023/06/09 07:38:46;;;;;;;;;22.20;21.60;;;;;23.62;52.86;99750.94;5094530;28;8834;-58
2023/06/09 07:41:14;;;;;;;;;24.80;22.80;;;;;23.73;53.39;99747.56;5093891;28;8846;-60
2023/06/09 07:43:42;;;;;;;;;23.60;22.20;;;;;23.82;53.15;99749.03;5094663;28;8849;-58
2023/06/09 07:46:13;;;;;;;;;22.00;20.80;;;;;23.91;53.02;99745.06;5094097;28;8826;-61
2023/06/09 07:48:42;;;;;;;;;19.60;19.00;;;;;24.02;53.40;99744.41;5094474;28;8810;-59
2023/06/09 07:51:13;;;;;;;;;26.20;21.60;;;;;24.13;52.73;99747.31;5092780;28;8834;-58
2023/06/09 07:53:41;;;;;;;;;27.20;25.00;;;;;24.23;52.25;99745.00;5092984;28;8876;-61
2023/06/09 07:56:09;;;;;;;;;23.00;23.00;;;;;24.32;52.38;99741.00;5094457;28;8861;-59
2023/06/09 07:58:37;;;;;;;;;22.60;21.40;;;;;24.42;52.47;99752.25;5094815;28;9539;-60
2023/06/09 08:01:05;;;;;;;;;23.20;21.80;;;;;24.49;52.30;99744.09;5094815;28;8829;-60
2023/06/09 08:03:34;;;;;;;;;20.80;19.60;;;;;24.56;52.19;99742.19;5093116;28;8931;-58
2023/06/09 08:06:03;;;;;;;;;23.00;20.00;;;;;24.64;51.95;99741.94;5093246;28;8834;-60
2023/06/09 08:08:31;;;;;;;;;22.00;20.60;;;;;24.74;51.83;99736.88;5093619;28;8953;-61
2023/06/09 08:10:59;;;;;;;;;19.20;17.80;;;;;24.85;51.64;99737.00;5093670;28;8845;-58
2023/06/09 08:13:28;;;;;;;;;24.00;21.40;;;;;24.99;51.73;99732.31;5093585;28;8860;-61
2023/06/09 08:15:56;;;;;;;;;20.20;19.60;;;;;25.11;51.33;99733.28;5094162;28;8845;-59
2023/06/09 08:18:24;;;;;;;;;23.00;20.60;;;;;25.22;50.93;99725.28;5094205;28;8872;-59
2023/06/09 08:20:52;;;;;;;;;20.20;18.80;;;;;25.33;50.90;99726.44;5094457;28;8845;-61
2023/06/09 08:23:20;;;;;;;;;20.40;20.20;;;;;25.46;50.55;99731.78;5094642;28;8838;-59
2023/06/09 08:25:48;;;;;;;;;14.20;13.60;;;;;25.58;50.32;99718.03;5093757;28;8848;-61
2023/06/09 08:28:16;;;;;;;;;18.40;16.20;;;;;25.72;50.12;99716.00;5096556;28;8919;-59
2023/06/09 08:30:44;;;;;;;;;13.80;13.20;;;;;25.81;49.40;99715.50;5098697;28;8837;-60
2023/06/09 08:33:12;;;;;;;;;12.00;12.00;;;;;25.94;49.44;99720.88;5097747;28;8876;-59
2023/06/09 08:35:41;;;;;;;;;12.00;12.00;;;;;26.05;49.17;99714.66;5097637;28;8827;-60
2023/06/09 08:38:10;;;;;;;;;12.60;12.40;;;;;26.13;48.84;99703.44;5097622;28;8836;-58
2023/06/09 08:40:39;;;;;;;;;14.00;14.00;;;;;26.24;48.10;99710.88;5097038;28;8940;-59
2023/06/09 08:43:07;;;;;;;;;15.60;13.40;;;;;26.36;48.23;99708.22;5097746;28;8830;-60
2023/06/09 08:45:35;;;;;;;;;16.00;14.00;;;;;26.48;47.37;99711.84;5097385;28;8850;-60
2023/06/09 08:48:04;;;;;;;;;17.20;16.60;;;;;26.60;47.73;99710.88;5097297;28;8842;-61
2023/06/09 08:50:32;;;;;;;;;12.00;12.00;;;;;26.71;47.62;99714.72;5097187;28;8868;-60
2023/06/09 08:53:00;;;;;;;;;16.20;16.20;;;;;26.79;47.17;99704.28;5096365;28;9499;-59
2023/06/09 08:55:28;;;;;;;;;15.80;14.60;;;;;26.90;46.83;99708.97;5096163;28;8872;-61
2023/06/09 08:57:56;;;;;;;;;15.60;15.00;;;;;27.00;46.71;99703.78;5096151;28;8845;-60
2023/06/09 09:00:24;;;;;;;;;14.20;12.20;;;;;27.11;46.30;99708.47;5096353;28;8968;-61
2023/06/09 09:02:53;;;;;;;;;13.60;13.00;;;;;27.21;46.17;99707.91;5096571;28;8848;-58
2023/06/09 09:05:21;;;;;;;;;15.00;13.00;;;;;27.30;45.67;99709.22;5096864;28;9545;-61
2023/06/09 09:07:50;;;;;;;;;15.60;14.40;;;;;27.40;45.91;99713.06;5096660;28;8840;-61
2023/06/09 09:10:18;;;;;;;;;15.00;15.00;;;;;27.52;45.10;99713.06;5096457;28;9769;-60
2023/06/09 09:12:46;;;;;;;;;16.80;14.80;;;;;27.58;45.51;99710.25;5097747;28;9689;-61
2023/06/09 09:15:14;;;;;;;;;12.80;12.80;;;;;27.70;44.84;99705.59;5097570;28;8897;-61
2023/06/09 09:17:42;;;;;;;;;16.40;15.80;;;;;27.84;44.63;99709.78;5097525;28;8828;-61
2023/06/09 09:20:11;;;;;;;;;14.40;14.00;;;;;27.96;44.28;99707.88;5097784;28;8836;-61
2023/06/09 09:22:41;;;;;;;;;15.60;15.00;;;;;28.10;44.36;99708.47;5097964;28;8832;-61
2023/06/09 09:25:09;;;;;;;;;11.60;11.00;;;;;28.20;43.91;99715.00;5097056;28;9020;-61
2023/06/09 09:27:37;;;;;;;;;15.00;14.60;;;;;28.30;43.90;99701.50;5097215;28;8860;-60
2023/06/09 09:30:05;;;;;;;;;14.00;14.00;;;;;28.38;43.39;99703.91;5097992;28;8824;-61
2023/06/09 09:32:34;;;;;;;;;12.60;11.00;;;;;28.43;43.38;99698.53;5096792;28;8878;-61
2023/06/09 09:35:02;;;;;;;;;18.60;17.20;;;;;28.52;43.04;99699.81;5096256;28;8847;-58
2023/06/09 09:37:30;;;;;;;;;16.60;15.60;;;;;28.65;43.05;99699.53;5096318;28;8844;-61
2023/06/09 09:39:58;;;;;;;;;12.40;12.00;;;;;28.78;42.70;99701.16;5094700;28;8859;-62
2023/06/09 09:42:27;;;;;;;;;16.00;15.40;;;;;28.89;42.43;99694.81;5098339;28;8881;-61
2023/06/09 09:44:55;;;;;;;;;15.00;14.80;;;;;28.96;42.27;99688.09;5096632;28;8823;-62
2023/06/09 09:47:23;;;;;;;;;16.00;13.80;;;;;29.07;42.15;99698.19;5096847;28;8948;-61
2023/06/09 09:49:52;;;;;;;;;16.20;15.00;;;;;29.12;42.34;99692.78;5096467;28;8848;-60
2023/06/09 09:52:19;;;;;;;;;10.00;9.00;;;;;29.22;41.35;99692.13;5096829;28;8832;-61
2023/06/09 09:54:47;;;;;;;;;19.00;18.60;;;;;29.38;41.19;99688.56;5096231;28;8828;-62
2023/06/09 09:57:15;;;;;;;;;15.00;13.20;;;;;29.61;41.18;99689.28;5096580;28;8909;-61
2023/06/09 09:59:43;;;;;;;;;14.00;13.00;;;;;29.88;40.75;99690.22;5096461;28;8853;-61
2023/06/09 10:02:12;;;;;;;;;16.80;16.40;;;;;30.18;40.15;99681.63;5096757;28;8828;-62
2023/06/09 10:04:40;;;;;;;;;18.60;17.60;;;;;30.39;39.93;99676.13;5097167;28;8827;-61
2023/06/09 10:07:10;;;;;;;;;19.40;18.60;;;;;30.57;39.42;99677.72;5096725;28;8856;-61
2023/06/09 10:09:38;;;;;;;;;15.00;14.80;;;;;30.77;39.33;99676.03;5096437;28;8863;-59
2023/06/09 10:12:07;;;;;;;;;20.00;20.00;;;;;30.85;39.25;99675.56;5096237;28;8848;-61
2023/06/09 10:14:35;;;;;;;;;23.20;22.40;;;;;30.52;40.02;99683.13;5096748;28;8820;-60
2023/06/09 10:17:03;;;;;;;;;22.00;21.00;;;;;30.61;39.77;99679.69;5096558;28;8828;-61
2023/06/09 10:19:32;;;;;;;;;20.60;19.60;;;;;30.94;39.91;99674.84;5095801;28;8847;-61
2023/06/09 10:21:59;;;;;;;;;26.60;24.80;;;;;30.91;40.38;99677.28;5095879;28;8901;-61
2023/06/09 10:24:28;;;;;;;;;17.80;16.80;;;;;30.50;40.82;99677.06;5096593;28;8946;-61
2023/06/09 10:26:56;;;;;;;;;23.00;22.20;;;;;30.74;40.51;99669.13;5096075;28;8839;-61
2023/06/09 10:29:25;;;;;;;;;22.40;21.00;;;;;31.18;39.66;99667.16;5094719;28;8832;-60
2023/06/09 10:31:53;;;;;;;;;19.00;17.80;;;;;31.51;39.78;99664.09;5094796;28;8920;-60
2023/06/09 10:34:20;;;;;;;;;23.60;22.40;;;;;31.46;40.10;99672.31;5094929;28;8916;-61
2023/06/09 10:36:48;;;;;;;;;20.00;20.00;;;;;31.54;40.61;99666.31;5095158;28;8906;-61
2023/06/09 10:39:20;;;;;;;;;25.00;23.60;;;;;31.95;39.98;99668.31;5095204;28;8858;-62
2023/06/09 10:41:47;;;;;;;;;22.20;22.20;;;;;32.45;39.13;99660.28;5095564;28;8847;-60
2023/06/09 10:44:17;;;;;;;;;21.00;18.80;;;;;32.22;39.50;99663.50;5096521;28;8828;-61
2023/06/09 10:46:46;;;;;;;;;22.20;20.20;;;;;32.09;39.77;99670.31;5096031;28;8820;-60
2023/06/09 10:49:14;;;;;;;;;23.40;22.00;;;;;32.24;39.41;99666.84;5095482;28;8855;-61
2023/06/09 10:51:42;;;;;;;;;20.80;20.40;;;;;32.49;39.44;99659.50;5095059;28;8843;-60
2023/06/09 10:54:12;;;;;;;;;21.40;21.00;;;;;32.58;38.63;99668.91;5094898;28;8972;-61
2023/06/09 10:56:41;;;;;;;;;23.40;21.80;;;;;32.92;38.69;99652.75;5095583;28;9525;-61
2023/06/09 10:59:09;;;;;;;;;20.40;20.00;;;;;32.83;38.86;99654.34;5095266;28;9746;-62
2023/06/09 11:01:39;;;;;;;;;21.60;20.20;;;;;32.24;39.34;99661.31;5094073;28;8840;-59
2023/06/09 11:04:08;;;;;;;;;20.00;19.20;;;;;32.07;40.09;99660.63;5093449;28;8836;-62
2023/06/09 11:06:36;;;;;;;;;18.00;17.20;;;;;32.08;40.15;99656.81;5094596;28;8832;-61
2023/06/09 11:09:06;;;;;;;;;19.00;18.40;;;;;32.59;38.77;99658.69;5094739;28;8954;-61
2023/06/09 11:11:34;;;;;;;;;17.80;17.20;;;;;33.16;38.05;99645.59;5094422;28;8849;-60
2023/06/09 11:14:01;;;;;;;;;20.20;19.00;;;;;33.41;38.31;99640.09;5095171;28;8841;-61
2023/06/09 11:16:30;;;;;;;;;17.40;17.40;;;;;33.80;37.92;99639.25;5095082;28;8966;-59
2023/06/09 11:18:58;;;;;;;;;17.20;17.20;;;;;33.98;37.35;99640.59;5094638;28;8847;-62
2023/06/09 11:21:26;;;;;;;;;22.20;20.60;;;;;33.53;37.50;99638.69;5095553;28;8854;-59
2023/06/09 11:23:54;;;;;;;;;18.20;17.80;;;;;33.38;38.59;99640.66;5095680;28;8916;-61
2023/06/09 11:26:22;;;;;;;;;18.00;18.00;;;;;33.42;37.52;99636.22;5094546;28;8852;-59
2023/06/09 11:28:51;;;;;;;;;18.20;16.80;;;;;33.95;37.50;99641.13;5094632;28;8855;-61